Time;durP1;ratioP1;P1;durP2;ratioP2;P2;SDS_P1;SDS_P2;PMS_P1;PMS_P2;Temp;Humidity;BMP_temperature;BMP_pressure;BME280_temperature;BME280_humidity;BME280_pressure;Samples;Min_cycle;Max_cycle;Signal;HPM_P1;HPM_P2
2023/10/15 00:00:59;;;;;;;7.05;2.25;;;;;10.10;98778.00;;;;5035901;28;20041;-66
2023/10/15 00:03:25;;;;;;;12.70;3.08;;;;;10.00;98773.00;;;;5035263;28;20037;-66
2023/10/15 00:05:52;;;;;;;9.90;2.90;;;;;10.00;98780.00;;;;5035918;28;20120;-65
2023/10/15 00:08:19;;;;;;;5.88;2.67;;;;;10.00;98774.00;;;;5035616;28;20049;-65
2023/10/15 00:10:46;;;;;;;6.65;2.50;;;;;10.00;98783.00;;;;5035567;28;20449;-66
2023/10/15 00:13:13;;;;;;;6.15;2.60;;;;;10.30;98785.00;;;;5034370;28;20053;-66
2023/10/15 00:15:40;;;;;;;6.15;1.98;;;;;10.40;98784.00;;;;5034884;28;20099;-66
2023/10/15 00:18:07;;;;;;;8.52;2.72;;;;;10.30;98785.00;;;;5033834;28;20152;-66
2023/10/15 00:20:38;;;;;;;6.03;3.00;;;;;10.20;98792.00;;;;5035201;28;20049;-66
2023/10/15 00:23:04;;;;;;;7.90;2.38;;;;;10.20;98785.00;;;;5033926;28;20060;-66
2023/10/15 00:25:35;;;;;;;4.20;2.45;;;;;10.30;98786.00;;;;5033328;28;20054;-65
2023/10/15 00:28:11;;;;;;;6.90;2.40;;;;;10.30;98799.00;;;;5035094;28;20052;-66
2023/10/15 00:30:39;;;;;;;5.82;2.60;;;;;10.20;98787.00;;;;5035298;28;20402;-66
2023/10/15 00:33:11;;;;;;;3.83;2.22;;;;;10.20;98782.00;;;;5034134;28;20095;-66
2023/10/15 00:35:40;;;;;;;6.38;2.50;;;;;10.10;98786.00;;;;5033196;28;20115;-66
2023/10/15 00:38:16;;;;;;;5.07;2.70;;;;;10.10;98785.00;;;;5034750;28;20136;-66
2023/10/15 00:40:45;;;;;;;6.63;2.33;;;;;10.20;98791.00;;;;5034958;28;20483;-63
2023/10/15 00:43:17;;;;;;;8.23;2.47;;;;;10.20;98793.00;;;;5033689;28;20065;-63
2023/10/15 00:45:45;;;;;;;5.88;2.33;;;;;10.20;98779.00;;;;5033074;28;20056;-63
2023/10/15 00:48:22;;;;;;;6.95;2.30;;;;;10.20;98783.00;;;;5033378;28;20494;-66
2023/10/15 00:50:49;;;;;;;7.13;2.40;;;;;10.30;98780.00;;;;5033320;28;20491;-66
2023/10/15 00:53:27;;;;;;;4.85;2.50;;;;;10.30;98781.00;;;;5034465;28;20044;-66
2023/10/15 00:56:10;;;;;;;7.60;2.40;;;;;10.20;98772.00;;;;5033309;28;20055;-65
2023/10/15 00:59:08;;;;;;;6.97;2.33;;;;;10.20;98770.00;;;;5034408;28;20042;-66
2023/10/15 01:03:57;;;;;;;5.70;2.70;;;;;10.30;98770.00;;;;5033746;28;20490;-63
2023/10/15 01:09:10;;;;;;;6.55;2.50;;;;;10.50;98768.00;;;;5033126;28;20069;-64
2023/10/15 01:11:44;;;;;;;10.32;3.28;;;;;10.50;98769.00;;;;5036623;28;20041;-65
2023/10/15 01:14:11;;;;;;;5.28;2.38;;;;;10.60;98769.00;;;;5035724;28;20140;-64
2023/10/15 01:16:39;;;;;;;9.82;2.70;;;;;10.70;98770.00;;;;5034749;28;20057;-65
2023/10/15 01:21:48;;;;;;;7.82;2.88;;;;;10.70;98766.00;;;;5033050;28;20076;-64
2023/10/15 01:24:18;;;;;;;7.03;3.10;;;;;10.80;98773.00;;;;5032300;28;20091;-65
2023/10/15 01:26:53;;;;;;;7.40;2.45;;;;;10.70;98777.00;;;;5034086;28;20051;-65
2023/10/15 01:29:23;;;;;;;8.20;2.70;;;;;10.60;98772.00;;;;5034320;28;20095;-65
2023/10/15 01:31:58;;;;;;;6.38;3.20;;;;;10.70;98775.00;;;;5032702;28;20041;-65
2023/10/15 01:34:25;;;;;;;6.97;2.65;;;;;10.80;98778.00;;;;5032024;28;20053;-65
2023/10/15 01:36:59;;;;;;;7.68;3.33;;;;;10.80;98766.00;;;;5033902;28;20053;-65
2023/10/15 01:39:37;;;;;;;;;;;;;10.90;98773.00;;;;5034195;28;20552;-65
2023/10/15 01:42:06;;;;;;;9.43;3.05;;;;;10.90;98772.00;;;;5032655;28;20297;-64
2023/10/15 01:44:39;;;;;;;6.32;2.78;;;;;10.90;98770.00;;;;5033229;28;20052;-65
2023/10/15 01:49:33;;;;;;;5.32;2.65;;;;;11.00;98773.00;;;;5033692;28;20045;-64
2023/10/15 01:52:08;;;;;;;10.40;2.83;;;;;11.00;98774.00;;;;5033843;28;20124;-65
2023/10/15 01:54:45;;;;;;;8.07;3.20;;;;;11.00;98772.00;;;;5031849;28;20042;-65
2023/10/15 01:57:15;;;;;;;5.43;2.95;;;;;11.10;98777.00;;;;5033417;28;20099;-65
2023/10/15 01:59:48;;;;;;;5.40;2.95;;;;;11.10;98777.00;;;;5033515;28;20073;-65
2023/10/15 02:02:17;;;;;;;7.30;3.23;;;;;11.10;98771.00;;;;5032404;28;20115;-64
2023/10/15 02:04:45;;;;;;;8.38;2.63;;;;;11.10;98782.00;;;;5032848;28;20033;-65
2023/10/15 02:07:16;;;;;;;4.45;2.65;;;;;11.20;98780.00;;;;5032600;28;20045;-65
2023/10/15 02:09:44;;;;;;;6.25;2.75;;;;;11.20;98792.00;;;;5033387;28;20100;-65
2023/10/15 02:12:12;;;;;;;7.43;2.90;;;;;11.10;98781.00;;;;5031993;28;20132;-65
2023/10/15 02:14:43;;;;;;;6.75;3.10;;;;;11.10;98784.00;;;;5032506;28;20209;-64
2023/10/15 02:17:13;;;;;;;7.22;2.70;;;;;11.10;98785.00;;;;5031507;28;20045;-65
2023/10/15 02:19:41;;;;;;;8.15;2.78;;;;;11.10;98773.00;;;;5014838;28;20514;-65
2023/10/15 02:22:13;;;;;;;5.68;2.90;;;;;11.10;98782.00;;;;5031675;28;20055;-65
2023/10/15 02:24:46;;;;;;;6.22;2.85;;;;;11.10;98772.00;;;;5032320;28;20132;-64
2023/10/15 02:27:22;;;;;;;;;;;;;11.30;98769.00;;;;5031893;28;20110;-65
2023/10/15 02:29:50;;;;;;;7.47;2.92;;;;;11.20;98777.00;;;;5032873;28;19925;-65
2023/10/15 02:34:51;;;;;;;7.45;2.70;;;;;11.20;98768.00;;;;5030657;28;20136;-65
2023/10/15 02:37:28;;;;;;;4.68;2.20;;;;;11.20;98768.00;;;;5032672;28;20046;-65
2023/10/15 02:39:59;;;;;;;9.48;2.67;;;;;11.20;98758.00;;;;5031436;28;20049;-65
2023/10/15 02:42:35;;;;;;;6.70;2.70;;;;;11.20;98753.00;;;;5014953;28;20049;-65
2023/10/15 02:45:06;;;;;;;6.30;2.60;;;;;11.20;98756.00;;;;5030730;28;20045;-64
2023/10/15 02:47:41;;;;;;;7.63;3.28;;;;;11.10;98753.00;;;;5032637;28;20041;-65
2023/10/15 02:50:15;;;;;;;4.85;2.42;;;;;11.10;98757.00;;;;5031193;28;20056;-65
2023/10/15 02:52:45;;;;;;;16.67;3.47;;;;;11.10;98758.00;;;;5031781;28;20046;-65
2023/10/15 02:55:16;;;;;;;;;;;;;11.00;98767.00;;;;5032721;28;20048;-64
2023/10/15 02:57:44;;;;;;;7.15;3.05;;;;;10.80;98761.00;;;;5014831;28;19921;-65
2023/10/15 03:00:18;;;;;;;6.05;2.67;;;;;10.40;98761.00;;;;5031218;28;20049;-63
2023/10/15 03:02:45;;;;;;;7.25;2.83;;;;;10.10;98757.00;;;;5031112;28;20080;-63
2023/10/15 03:05:13;;;;;;;5.75;3.25;;;;;10.10;98757.00;;;;5031689;28;20038;-63
2023/10/15 03:07:42;;;;;;;9.25;3.10;;;;;10.10;98752.00;;;;5032106;28;20045;-63
2023/10/15 03:10:13;;;;;;;9.38;3.08;;;;;10.20;98761.00;;;;5032502;28;20045;-64
2023/10/15 03:12:43;;;;;;;8.75;3.15;;;;;10.10;98757.00;;;;5032474;28;20080;-63
2023/10/15 03:15:17;;;;;;;6.40;2.70;;;;;10.10;98756.00;;;;5031541;28;20045;-64
2023/10/15 03:17:44;;;;;;;;;;;;;10.10;98756.00;;;;5032498;28;20042;-65
2023/10/15 03:22:45;;;;;;;5.47;2.65;;;;;10.00;98774.00;;;;5032517;28;20553;-64
2023/10/15 03:25:16;;;;;;;6.65;2.75;;;;;10.10;98777.00;;;;5030313;28;20145;-64
2023/10/15 03:27:46;;;;;;;9.15;2.95;;;;;10.10;98762.00;;;;5031118;28;20046;-63
2023/10/15 03:30:14;;;;;;;4.93;2.95;;;;;10.10;98768.00;;;;5032418;28;20045;-64
2023/10/15 03:32:44;;;;;;;9.27;2.92;;;;;10.10;98763.00;;;;5035511;28;20045;-64
2023/10/15 03:35:18;;;;;;;7.80;2.90;;;;;10.20;98769.00;;;;5035667;28;20049;-64
2023/10/15 03:37:45;;;;;;;;;;;;;10.10;98767.00;;;;5036678;28;20071;-64
2023/10/15 03:40:29;;;;;;;7.15;2.92;;;;;9.90;98765.00;;;;5036004;28;19928;-64
2023/10/15 03:43:15;;;;;;;7.63;2.95;;;;;9.70;98757.00;;;;5036016;28;20446;-65
2023/10/15 03:45:51;;;;;;;8.88;2.70;;;;;9.60;98760.00;;;;5034515;28;20033;-65
2023/10/15 03:48:29;;;;;;;8.25;3.13;;;;;9.60;98768.00;;;;5035983;28;20045;-65
2023/10/15 03:50:58;;;;;;;6.30;2.92;;;;;9.50;98761.00;;;;5035877;28;20041;-63
2023/10/15 03:53:31;;;;;;;8.68;4.05;;;;;9.50;98763.00;;;;5035375;28;20049;-65
2023/10/15 03:56:00;;;;;;;6.10;2.97;;;;;9.60;98757.00;;;;5035697;28;20069;-64
2023/10/15 03:58:28;;;;;;;9.68;3.83;;;;;9.70;98757.00;;;;5035910;28;20418;-64
2023/10/15 04:01:17;;;;;;;10.82;3.35;;;;;9.70;98763.00;;;;5034511;28;20070;-64
2023/10/15 04:03:47;;;;;;;11.88;5.50;;;;;9.60;98771.00;;;;5034900;28;20095;-64
2023/10/15 04:06:19;;;;;;;7.13;3.83;;;;;9.60;98780.00;;;;5035679;28;20124;-63
2023/10/15 04:11:30;;;;;;;8.73;3.90;;;;;9.40;98776.00;;;;5035775;28;20076;-63
2023/10/15 04:14:01;;;;;;;6.90;4.15;;;;;9.40;98772.00;;;;5034782;28;20099;-63
2023/10/15 04:16:29;;;;;;;8.65;4.22;;;;;9.40;98769.00;;;;5035616;28;20080;-64
2023/10/15 04:19:00;;;;;;;7.03;3.67;;;;;9.50;98770.00;;;;5035222;28;20072;-64
2023/10/15 04:21:27;;;;;;;4.78;3.33;;;;;9.50;98776.00;;;;5036037;28;20084;-63
2023/10/15 04:23:56;;;;;;;6.30;3.53;;;;;9.30;98777.00;;;;5035753;28;20048;-63
2023/10/15 04:26:28;;;;;;;7.30;2.90;;;;;9.20;98771.00;;;;5036790;28;20060;-63
2023/10/15 04:28:55;;;;;;;6.65;3.10;;;;;9.30;98756.00;;;;5036590;28;20068;-61
2023/10/15 04:31:24;;;;;;;7.78;3.13;;;;;9.20;98766.00;;;;5036271;28;20068;-64
2023/10/15 04:33:52;;;;;;;6.15;3.40;;;;;9.00;98765.00;;;;5034942;28;20092;-63
2023/10/15 04:36:19;;;;;;;4.80;2.88;;;;;8.90;98764.00;;;;5035378;28;20048;-63
2023/10/15 04:38:46;;;;;;;9.05;3.50;;;;;8.90;98765.00;;;;5035071;28;20068;-63
2023/10/15 04:41:21;;;;;;;8.45;3.40;;;;;8.90;98774.00;;;;5035192;28;20046;-64
2023/10/15 04:43:48;;;;;;;5.00;3.20;;;;;8.90;98767.00;;;;5034070;28;20071;-64
2023/10/15 04:46:25;;;;;;;6.90;3.15;;;;;9.00;98773.00;;;;5034857;28;20495;-64
2023/10/15 04:48:54;;;;;;;5.57;3.03;;;;;9.00;98784.00;;;;5034929;28;20042;-64
2023/10/15 04:51:29;;;;;;;7.72;3.08;;;;;9.00;98776.00;;;;5034963;28;20053;-61
2023/10/15 04:53:56;;;;;;;11.60;3.15;;;;;9.00;98779.00;;;;5034142;28;20072;-62
2023/10/15 04:56:22;;;;;;;3.65;2.28;;;;;9.00;98783.00;;;;5033680;28;20045;-62
2023/10/15 04:58:49;;;;;;;10.00;2.58;;;;;9.00;98782.00;;;;5034563;28;20124;-63
2023/10/15 05:01:16;;;;;;;5.43;2.70;;;;;9.00;98781.00;;;;5034482;28;20111;-62
2023/10/15 05:03:45;;;;;;;10.20;2.80;;;;;9.00;98786.00;;;;5034335;28;20058;-62
2023/10/15 05:06:12;;;;;;;7.20;3.05;;;;;9.00;98783.00;;;;5035143;28;20048;-62
2023/10/15 05:08:42;;;;;;;6.05;2.60;;;;;9.00;98784.00;;;;5034934;28;20045;-63
2023/10/15 05:11:09;;;;;;;4.38;2.60;;;;;9.10;98798.00;;;;5034859;28;20395;-62
2023/10/15 05:13:35;;;;;;;7.53;2.95;;;;;9.10;98796.00;;;;5033930;28;20049;-63
2023/10/15 05:16:02;;;;;;;5.05;2.97;;;;;9.10;98799.00;;;;5034314;28;20087;-62
2023/10/15 05:18:29;;;;;;;9.10;3.13;;;;;9.00;98798.00;;;;5035170;28;20167;-62
2023/10/15 05:20:56;;;;;;;5.43;3.03;;;;;8.80;98803.00;;;;5035080;28;20124;-62
2023/10/15 05:23:23;;;;;;;6.05;2.75;;;;;8.60;98799.00;;;;5034951;28;20072;-63
2023/10/15 05:25:49;;;;;;;7.75;2.80;;;;;8.60;98805.00;;;;5034704;28;20072;-63
2023/10/15 05:28:17;;;;;;;9.68;3.35;;;;;8.50;98798.00;;;;5034336;28;20049;-63
2023/10/15 05:30:43;;;;;;;5.45;2.70;;;;;8.60;98801.00;;;;5034049;28;20095;-63
2023/10/15 05:33:10;;;;;;;8.38;2.80;;;;;8.50;98802.00;;;;5033953;28;20049;-64
2023/10/15 05:35:37;;;;;;;7.95;2.83;;;;;8.40;98803.00;;;;5031894;28;20045;-64
2023/10/15 05:38:08;;;;;;;6.07;2.63;;;;;8.30;98807.00;;;;5033922;28;20088;-66
2023/10/15 05:40:37;;;;;;;4.90;2.50;;;;;8.30;98805.00;;;;5033918;28;20041;-64
2023/10/15 05:43:07;;;;;;;4.22;2.78;;;;;8.40;98807.00;;;;5032615;28;20046;-64
2023/10/15 05:45:33;;;;;;;7.53;3.00;;;;;8.50;98813.00;;;;5033254;28;20128;-64
2023/10/15 05:48:00;;;;;;;5.38;2.60;;;;;8.60;98818.00;;;;5033657;28;20080;-64
2023/10/15 05:50:27;;;;;;;5.68;2.55;;;;;8.40;98822.00;;;;5032472;28;20103;-64
2023/10/15 05:52:54;;;;;;;5.03;2.65;;;;;8.20;98826.00;;;;5033493;28;20073;-63
2023/10/15 05:55:21;;;;;;;9.68;2.97;;;;;8.20;98826.00;;;;5030979;28;20041;-64
2023/10/15 05:57:47;;;;;;;5.70;2.60;;;;;8.20;98839.00;;;;5033431;28;20124;-64
2023/10/15 06:00:18;;;;;;;4.90;2.50;;;;;8.10;98835.00;;;;5033554;28;20045;-63
2023/10/15 06:02:46;;;;;;;7.13;2.92;;;;;8.00;98829.00;;;;5033416;28;20060;-65
2023/10/15 06:05:14;;;;;;;6.45;3.35;;;;;8.10;98835.00;;;;5031587;28;20038;-64
2023/10/15 06:07:41;;;;;;;5.45;2.85;;;;;8.30;98841.00;;;;5033172;28;20041;-64
2023/10/15 06:10:09;;;;;;;8.00;3.33;;;;;8.40;98842.00;;;;5033337;28;20050;-64
2023/10/15 06:12:41;;;;;;;8.38;2.67;;;;;8.50;98846.00;;;;5033259;28;20041;-64
2023/10/15 06:15:09;;;;;;;4.93;2.72;;;;;8.60;98833.00;;;;5032560;28;20084;-63
2023/10/15 06:17:36;;;;;;;8.57;4.10;;;;;8.70;98846.00;;;;5031899;28;20059;-64
2023/10/15 06:20:12;;;;;;;6.05;3.05;;;;;8.60;98838.00;;;;5032996;28;20049;-63
2023/10/15 06:22:44;;;;;;;4.85;2.75;;;;;8.60;98829.00;;;;5033179;28;20040;-63
2023/10/15 06:25:12;;;;;;;2.88;2.17;;;;;8.60;98843.00;;;;5032357;28;20059;-63
2023/10/15 06:27:39;;;;;;;7.60;2.95;;;;;8.40;98842.00;;;;5031540;28;20116;-64
2023/10/15 06:30:14;;;;;;;7.32;2.72;;;;;8.40;98850.00;;;;5032839;28;20454;-64
2023/10/15 06:32:44;;;;;;;5.32;2.65;;;;;8.60;98854.00;;;;5033022;28;20133;-64
2023/10/15 06:35:18;;;;;;;5.97;3.85;;;;;8.70;98841.00;;;;5032393;28;20125;-64
2023/10/15 06:38:02;;;;;;;6.17;3.33;;;;;8.70;98855.00;;;;5032882;28;20259;-64
2023/10/15 06:40:30;;;;;;;7.88;4.18;;;;;8.60;98840.00;;;;5031433;28;20638;-64
2023/10/15 06:43:00;;;;;;;8.18;4.90;;;;;8.60;98849.00;;;;5032678;28;20140;-63
2023/10/15 06:45:28;;;;;;;7.20;4.03;;;;;8.70;98854.00;;;;5032145;28;20087;-63
2023/10/15 06:47:55;;;;;;;10.38;4.88;;;;;8.70;98850.00;;;;5032836;28;20069;-64
2023/10/15 06:50:22;;;;;;;8.43;4.03;;;;;8.80;98853.00;;;;5032605;28;20064;-64
2023/10/15 06:52:52;;;;;;;7.55;3.38;;;;;9.00;98857.00;;;;5032682;28;20157;-62
2023/10/15 06:55:22;;;;;;;10.30;4.95;;;;;9.00;98852.00;;;;5030804;28;20037;-63
2023/10/15 06:57:50;;;;;;;8.27;3.92;;;;;9.10;98866.00;;;;5032379;28;20049;-63
2023/10/15 07:00:23;;;;;;;7.35;3.25;;;;;9.20;98861.00;;;;5031457;28;20128;-63
2023/10/15 07:02:54;;;;;;;;;;;;;9.30;98871.00;;;;5033113;28;20053;-63
2023/10/15 07:05:25;;;;;;;6.97;3.20;;;;;9.40;98868.00;;;;5032087;28;19928;-65
2023/10/15 07:07:56;;;;;;;7.90;3.72;;;;;9.50;98867.00;;;;5035792;28;20041;-62
2023/10/15 07:10:24;;;;;;;6.80;3.42;;;;;9.60;98860.00;;;;5041772;28;20056;-64
2023/10/15 07:12:51;;;;;;;5.85;3.50;;;;;9.60;98873.00;;;;5040716;28;20108;-63
2023/10/15 07:15:20;;;;;;;8.02;3.03;;;;;9.70;98876.00;;;;5039529;28;20041;-64
2023/10/15 07:17:49;;;;;;;6.53;3.45;;;;;9.70;98883.00;;;;5038207;28;20050;-63
2023/10/15 07:20:21;;;;;;;7.82;3.65;;;;;9.80;98878.00;;;;5039517;28;20045;-63
2023/10/15 07:22:50;;;;;;;7.90;3.90;;;;;9.80;98880.00;;;;5038959;28;20105;-63
2023/10/15 07:25:18;;;;;;;5.15;3.35;;;;;9.90;98879.00;;;;5039326;28;20125;-63
2023/10/15 07:27:47;;;;;;;6.18;2.80;;;;;10.00;98878.00;;;;5035325;28;20100;-64
2023/10/15 07:30:14;;;;;;;6.65;2.78;;;;;10.00;98876.00;;;;5031879;28;20057;-64
2023/10/15 07:32:42;;;;;;;6.63;3.00;;;;;10.10;98867.00;;;;5031987;28;20045;-64
2023/10/15 07:35:13;;;;;;;9.98;3.38;;;;;10.10;98885.00;;;;5030284;28;20477;-63
2023/10/15 07:37:46;;;;;;;5.05;3.20;;;;;10.30;98881.00;;;;5032117;28;20107;-63
2023/10/15 07:40:17;;;;;;;5.55;3.28;;;;;10.40;98895.00;;;;5032046;28;20128;-63
2023/10/15 07:42:48;;;;;;;7.38;3.67;;;;;10.60;98898.00;;;;5031956;28;20064;-63
2023/10/15 07:45:16;;;;;;;6.10;3.22;;;;;10.70;98897.00;;;;5031418;28;20045;-64
2023/10/15 07:47:44;;;;;;;9.10;3.75;;;;;10.90;98895.00;;;;5031887;28;20084;-63
2023/10/15 07:50:13;;;;;;;7.22;2.83;;;;;11.00;98898.00;;;;5031906;28;20095;-65
2023/10/15 07:52:40;;;;;;;11.13;3.80;;;;;11.00;98903.00;;;;5030532;28;20592;-63
2023/10/15 07:55:10;;;;;;;7.43;2.70;;;;;10.90;98902.00;;;;5031101;28;20425;-63
2023/10/15 07:57:40;;;;;;;7.90;2.50;;;;;10.90;98899.00;;;;5031749;28;20042;-63
2023/10/15 08:00:09;;;;;;;9.45;2.42;;;;;10.90;98897.00;;;;5031949;28;20065;-63
2023/10/15 08:02:39;;;;;;;9.90;2.05;;;;;10.90;98898.00;;;;5030567;28;20510;-64
2023/10/15 08:05:06;;;;;;;4.20;2.60;;;;;10.90;98904.00;;;;5031310;28;20038;-63
2023/10/15 08:07:36;;;;;;;7.90;2.47;;;;;11.00;98896.00;;;;5031667;28;20099;-64
2023/10/15 08:10:04;;;;;;;6.32;2.60;;;;;11.10;98898.00;;;;5032127;28;20490;-62
2023/10/15 08:12:31;;;;;;;9.15;2.90;;;;;11.20;98893.00;;;;5031994;28;20128;-63
2023/10/15 08:14:58;;;;;;;6.78;2.08;;;;;11.20;98906.00;;;;5031059;28;20045;-64
2023/10/15 08:17:26;;;;;;;5.93;2.13;;;;;11.30;98919.00;;;;5031460;28;20045;-64
2023/10/15 08:19:53;;;;;;;7.50;2.05;;;;;11.40;98921.00;;;;5035164;28;20418;-64
2023/10/15 08:22:20;;;;;;;6.03;2.10;;;;;11.40;98922.00;;;;5034000;28;20042;-63
2023/10/15 08:24:46;;;;;;;7.10;2.28;;;;;11.30;98923.00;;;;5034773;28;20049;-62
2023/10/15 08:27:13;;;;;;;5.32;1.90;;;;;11.20;98922.00;;;;5035346;28;20076;-62
2023/10/15 08:29:41;;;;;;;6.25;1.80;;;;;11.20;98929.00;;;;5035614;28;20128;-62
2023/10/15 08:32:16;;;;;;;11.63;2.15;;;;;11.20;98926.00;;;;5033998;28;20077;-62
2023/10/15 08:34:44;;;;;;;9.02;2.40;;;;;11.20;98936.00;;;;5034390;28;20045;-62
2023/10/15 08:37:12;;;;;;;5.32;2.00;;;;;11.30;98935.00;;;;5035060;28;20137;-64
2023/10/15 08:39:39;;;;;;;3.67;2.17;;;;;11.50;98926.00;;;;5035191;28;20052;-63
2023/10/15 08:42:13;;;;;;;4.32;2.22;;;;;11.60;98927.00;;;;5034977;28;20125;-63
2023/10/15 08:44:42;;;;;;;;;;;;;11.80;98935.00;;;;5035066;28;20073;-64
2023/10/15 08:47:11;;;;;;;6.63;2.08;;;;;11.80;98938.00;;;;5035597;28;20370;-63
2023/10/15 08:49:44;;;;;;;5.20;2.10;;;;;12.00;98939.00;;;;5034834;28;20037;-64
2023/10/15 08:52:12;;;;;;;6.03;1.80;;;;;12.00;98937.00;;;;5034703;28;20457;-63
2023/10/15 08:54:42;;;;;;;4.53;1.92;;;;;12.10;98935.00;;;;5034317;28;20103;-62
2023/10/15 08:57:09;;;;;;;5.22;2.05;;;;;12.20;98933.00;;;;5034564;28;20046;-63
2023/10/15 08:59:36;;;;;;;8.68;2.28;;;;;12.20;98941.00;;;;5034439;28;20133;-63
2023/10/15 09:02:08;;;;;;;5.63;2.20;;;;;12.40;98947.00;;;;5034996;28;20465;-63
2023/10/15 09:04:35;;;;;;;7.68;2.58;;;;;12.50;98947.00;;;;5034088;28;20037;-64
2023/10/15 09:07:03;;;;;;;5.88;2.25;;;;;12.60;98932.00;;;;5035215;28;20068;-62
2023/10/15 09:09:33;;;;;;;4.80;2.20;;;;;12.60;98940.00;;;;5035139;28;20072;-62
2023/10/15 09:12:00;;;;;;;3.10;1.50;;;;;12.80;98928.00;;;;5035545;28;20049;-63
2023/10/15 09:14:56;;;;;;;6.70;1.85;;;;;12.90;98935.00;;;;5033916;28;20053;-62
2023/10/15 09:17:25;;;;;;;5.75;1.73;;;;;13.20;98925.00;;;;5031007;28;20160;-63
2023/10/15 09:19:53;;;;;;;5.90;2.30;;;;;13.60;98938.00;;;;5035486;28;20502;-64
2023/10/15 09:22:19;;;;;;;3.15;1.55;;;;;13.80;98932.00;;;;5033720;28;20045;-63
2023/10/15 09:24:46;;;;;;;7.10;2.35;;;;;14.00;98932.00;;;;5034025;28;20045;-63
2023/10/15 09:27:13;;;;;;;5.32;1.73;;;;;13.90;98928.00;;;;5033522;28;20064;-64
2023/10/15 09:29:41;;;;;;;3.75;1.95;;;;;13.80;98932.00;;;;5033018;28;20069;-63
2023/10/15 09:32:09;;;;;;;3.40;1.73;;;;;13.90;98930.00;;;;5034469;28;20044;-63
2023/10/15 09:34:39;;;;;;;4.85;1.77;;;;;14.00;98941.00;;;;5034211;28;20042;-62
2023/10/15 09:37:06;;;;;;;5.10;1.38;;;;;14.00;98944.00;;;;5033782;28;20048;-64
2023/10/15 09:39:35;;;;;;;4.13;1.88;;;;;13.90;98944.00;;;;5033997;28;20053;-63
2023/10/15 09:42:05;;;;;;;4.38;1.63;;;;;13.80;98941.00;;;;5032822;28;20414;-63
2023/10/15 09:44:32;;;;;;;7.45;2.10;;;;;13.80;98939.00;;;;5033497;28;20502;-63
2023/10/15 09:47:01;;;;;;;1.85;1.15;;;;;13.70;98939.00;;;;5034515;28;20120;-62
2023/10/15 09:49:33;;;;;;;4.53;1.73;;;;;13.70;98931.00;;;;5034233;28;20045;-64
2023/10/15 09:52:05;;;;;;;5.30;1.98;;;;;13.80;98940.00;;;;5033746;28;20053;-64
2023/10/15 09:54:33;;;;;;;3.45;1.58;;;;;13.60;98934.00;;;;5033334;28;20038;-64
2023/10/15 09:57:02;;;;;;;4.47;1.60;;;;;13.50;98944.00;;;;5033556;28;20809;-65
2023/10/15 09:59:29;;;;;;;3.83;1.30;;;;;13.30;98947.00;;;;5033573;28;20510;-64
2023/10/15 10:02:05;;;;;;;4.47;2.05;;;;;13.30;98948.00;;;;5033411;28;20187;-65
2023/10/15 10:05:16;;;;;;;3.60;2.10;;;;;13.40;98948.00;;;;5032993;28;20487;-65
2023/10/15 10:08:20;;;;;;;3.38;1.95;;;;;13.40;98949.00;;;;5031984;28;20045;-64
2023/10/15 10:11:01;;;;;;;2.38;0.90;;;;;13.40;98949.00;;;;5032251;28;20128;-65
2023/10/15 10:14:05;;;;;;;3.60;1.27;;;;;13.70;98944.00;;;;5033343;28;20056;-65
2023/10/15 10:16:32;;;;;;;2.97;0.93;;;;;14.00;98945.00;;;;5029421;28;20442;-65
2023/10/15 10:19:01;;;;;;;1.27;1.17;;;;;14.40;98938.00;;;;5033082;28;20084;-65
2023/10/15 10:21:31;;;;;;;3.60;0.90;;;;;14.40;98954.00;;;;5033356;28;20037;-65
2023/10/15 10:23:58;;;;;;;3.63;0.90;;;;;14.30;98943.00;;;;5031743;28;20045;-65
2023/10/15 10:26:32;;;;;;;2.95;0.80;;;;;13.90;98956.00;;;;5033132;28;20486;-65
2023/10/15 10:29:01;;;;;;;2.38;0.90;;;;;13.60;98957.00;;;;5033246;28;20049;-64
2023/10/15 10:31:33;;;;;;;1.08;0.73;;;;;13.40;98961.00;;;;5033175;28;20056;-64
2023/10/15 10:34:03;;;;;;;2.03;0.93;;;;;13.40;98963.00;;;;5032838;28;20053;-64
2023/10/15 10:36:36;;;;;;;2.22;0.80;;;;;13.40;98958.00;;;;5033107;28;20111;-65
2023/10/15 10:39:13;;;;;;;1.98;1.17;;;;;13.20;98949.00;;;;5032939;28;20045;-65
2023/10/15 10:41:46;;;;;;;2.40;0.82;;;;;13.10;98959.00;;;;5031256;28;20132;-65
2023/10/15 10:44:22;;;;;;;2.42;0.88;;;;;13.10;98967.00;;;;5032197;28;20103;-64
2023/10/15 10:46:53;;;;;;;2.17;0.90;;;;;13.10;98964.00;;;;5031559;28;20041;-65
2023/10/15 10:49:39;;;;;;;2.53;1.00;;;;;13.30;98955.00;;;;5032813;28;20049;-66
2023/10/15 10:52:16;;;;;;;4.28;1.40;;;;;13.70;98949.00;;;;5032565;28;20060;-65
2023/10/15 10:54:45;;;;;;;1.95;0.90;;;;;14.00;98953.00;;;;5032472;28;20502;-65
2023/10/15 10:57:12;;;;;;;2.67;0.70;;;;;14.00;98954.00;;;;5032762;28;20065;-64
2023/10/15 10:59:41;;;;;;;2.42;1.20;;;;;14.20;98949.00;;;;5032149;28;20038;-63
2023/10/15 11:02:13;;;;;;;1.90;0.80;;;;;14.40;98954.00;;;;5034642;28;20049;-65
2023/10/15 11:04:41;;;;;;;4.18;1.63;;;;;14.50;98952.00;;;;5033351;28;20050;-64
2023/10/15 11:07:10;;;;;;;7.13;3.35;;;;;14.70;98945.00;;;;5033887;28;20038;-63
2023/10/15 11:09:37;;;;;;;2.55;0.93;;;;;14.90;98950.00;;;;5033549;28;20411;-65
2023/10/15 11:12:06;;;;;;;2.75;1.10;;;;;15.00;98946.00;;;;5032541;28;20110;-65
2023/10/15 11:14:34;;;;;;;1.83;1.08;;;;;15.10;98948.00;;;;5031914;28;20046;-65
2023/10/15 11:17:02;;;;;;;1.90;0.80;;;;;15.40;98950.00;;;;5032355;28;20048;-64
2023/10/15 11:19:30;;;;;;;3.95;1.50;;;;;15.60;98949.00;;;;5032256;28;20414;-64
2023/10/15 11:21:57;;;;;;;3.15;1.10;;;;;15.70;98944.00;;;;5032471;28;20055;-64
2023/10/15 11:24:25;;;;;;;4.28;2.10;;;;;15.70;98949.00;;;;5031782;28;20049;-64
2023/10/15 11:26:54;;;;;;;2.55;1.60;;;;;15.60;98952.00;;;;5031070;28;20056;-64
2023/10/15 11:29:23;;;;;;;2.45;1.33;;;;;15.50;98951.00;;;;5032190;28;20038;-63
2023/10/15 11:31:53;;;;;;;1.48;0.80;;;;;15.50;98954.00;;;;5032173;28;20079;-63
2023/10/15 11:34:22;;;;;;;1.15;0.68;;;;;15.10;98960.00;;;;5031980;28;20045;-64
2023/10/15 11:36:52;;;;;;;1.33;1.13;;;;;14.80;98959.00;;;;5032081;28;20406;-65
2023/10/15 11:39:25;;;;;;;1.00;0.77;;;;;14.50;98964.00;;;;5032250;28;20048;-65
2023/10/15 11:41:53;;;;;;;1.75;1.15;;;;;14.30;98963.00;;;;5032083;28;20129;-63
2023/10/15 11:44:26;;;;;;;3.90;0.82;;;;;14.30;98951.00;;;;5031428;28;20046;-65
2023/10/15 11:46:54;;;;;;;1.97;1.00;;;;;14.60;98943.00;;;;5032360;28;20042;-65
2023/10/15 11:49:22;;;;;;;2.75;0.90;;;;;14.80;98951.00;;;;5032028;28;20095;-63
2023/10/15 11:51:55;;;;;;;1.08;0.82;;;;;14.90;98947.00;;;;5032201;28;20116;-64
2023/10/15 11:54:29;;;;;;;2.50;0.90;;;;;15.20;98947.00;;;;5035547;28;20065;-64
2023/10/15 11:57:00;;;;;;;1.70;0.80;;;;;15.40;98953.00;;;;5035886;28;20072;-64
2023/10/15 11:59:27;;;;;;;2.10;0.70;;;;;15.60;98958.00;;;;5036610;28;20057;-64
2023/10/15 12:01:53;;;;;;;2.20;0.93;;;;;15.70;98949.00;;;;5037133;28;20049;-64
2023/10/15 12:04:23;;;;;;;3.17;0.80;;;;;15.80;98951.00;;;;5036075;28;20045;-65
2023/10/15 12:06:52;;;;;;;2.90;1.27;;;;;16.00;98952.00;;;;5036144;28;20044;-65
2023/10/15 12:09:24;;;;;;;1.20;0.75;;;;;16.00;98950.00;;;;5036414;28;20414;-63
2023/10/15 12:11:52;;;;;;;2.47;0.82;;;;;16.00;98956.00;;;;5037029;28;20446;-64
2023/10/15 12:14:19;;;;;;;2.58;1.13;;;;;16.00;98951.00;;;;5034698;28;20080;-64
2023/10/15 12:16:45;;;;;;;1.42;1.20;;;;;16.00;98957.00;;;;5036472;28;20050;-64
2023/10/15 12:19:12;;;;;;;0.95;0.70;;;;;16.10;98960.00;;;;5036649;28;20057;-64
2023/10/15 12:21:40;;;;;;;1.95;0.85;;;;;16.10;98950.00;;;;5035267;28;20077;-64
2023/10/15 12:24:11;;;;;;;1.80;0.88;;;;;16.10;98955.00;;;;5034703;28;20041;-64
2023/10/15 12:26:38;;;;;;;2.38;0.90;;;;;16.10;98945.00;;;;5035537;28;20091;-64
2023/10/15 12:29:05;;;;;;;2.03;0.82;;;;;16.20;98953.00;;;;5019234;28;20045;-62
2023/10/15 12:31:52;;;;;;;2.75;1.65;;;;;16.30;98949.00;;;;5035217;28;20346;-63
2023/10/15 12:34:20;;;;;;;2.97;1.33;;;;;16.30;98945.00;;;;5035227;28;20064;-63
2023/10/15 12:36:47;;;;;;;1.30;0.90;;;;;16.30;98954.00;;;;5035544;28;20080;-63
2023/10/15 12:39:15;;;;;;;6.43;3.20;;;;;16.10;98949.00;;;;5035457;28;20422;-63
2023/10/15 12:41:41;;;;;;;1.63;0.95;;;;;16.10;98953.00;;;;5035327;28;20041;-63
2023/10/15 12:44:10;;;;;;;2.00;1.27;;;;;16.20;98940.00;;;;5034854;28;20048;-64
2023/10/15 12:46:38;;;;;;;4.85;0.80;;;;;16.20;98947.00;;;;5035207;28;20064;-62
2023/10/15 12:49:05;;;;;;;3.53;1.25;;;;;16.30;98964.00;;;;5035112;28;20072;-64
2023/10/15 12:51:32;;;;;;;2.90;1.33;;;;;15.90;98969.00;;;;5034119;28;20144;-62
2023/10/15 12:53:59;;;;;;;4.53;1.02;;;;;15.50;98960.00;;;;5034510;28;20041;-64